createdAt,value
2019-03-09T00:00:36.289Z,7.30
2019-03-09T00:03:03.006Z,7.30
2019-03-09T00:05:29.726Z,7.30
2019-03-09T00:07:56.428Z,7.30
2019-03-09T00:10:23.177Z,7.20
2019-03-09T00:12:49.821Z,7.20
2019-03-09T00:15:16.619Z,7.20
2019-03-09T00:17:43.448Z,7.10
2019-03-09T00:20:10.140Z,7.10
2019-03-09T00:22:36.935Z,7.10
2019-03-09T00:25:06.171Z,7.10
2019-03-09T00:27:34.748Z,7.10
2019-03-09T00:30:03.335Z,7.20
2019-03-09T00:32:30.051Z,7.30
2019-03-09T00:34:56.975Z,7.20
2019-03-09T00:37:23.712Z,7.10
2019-03-09T00:39:50.405Z,7.10
2019-03-09T00:42:17.048Z,7.20
2019-03-09T00:44:44.045Z,7.00
2019-03-09T00:47:10.724Z,7.10
2019-03-09T00:49:37.403Z,7.10
2019-03-09T00:52:04.032Z,7.10
2019-03-09T00:54:30.792Z,7.00
2019-03-09T00:56:59.854Z,7.10
2019-03-09T00:59:26.556Z,7.20
2019-03-09T01:01:53.202Z,7.10
2019-03-09T01:04:19.885Z,7.10
2019-03-09T01:06:46.513Z,7.10
2019-03-09T01:09:13.221Z,7.00
2019-03-09T01:11:39.856Z,7.10
2019-03-09T01:14:06.524Z,7.20
2019-03-09T01:16:33.227Z,7.10
2019-03-09T01:19:00.057Z,7.10
2019-03-09T01:21:26.877Z,7.10
2019-03-09T01:23:53.549Z,7.00
2019-03-09T01:26:20.342Z,7.10
2019-03-09T01:28:47.094Z,7.00
2019-03-09T01:31:14.245Z,7.00
2019-03-09T01:33:40.969Z,7.10
2019-03-09T01:36:07.669Z,7.20
2019-03-09T01:38:34.307Z,7.30
2019-03-09T01:41:00.989Z,7.20
2019-03-09T01:43:27.636Z,7.20
2019-03-09T01:45:54.316Z,7.10
2019-03-09T01:48:20.961Z,7.10
2019-03-09T01:50:47.605Z,7.10
2019-03-09T01:53:14.295Z,7.20
2019-03-09T01:55:40.937Z,7.20
2019-03-09T01:58:07.640Z,7.20
2019-03-09T02:00:34.611Z,7.20
2019-03-09T02:03:01.271Z,7.20
2019-03-09T02:05:27.908Z,7.10
2019-03-09T02:07:54.728Z,7.20
2019-03-09T02:10:21.340Z,7.20
2019-03-09T02:12:48.026Z,7.20
2019-03-09T02:15:15.317Z,7.30
2019-03-09T02:17:42.208Z,7.30
2019-03-09T02:20:11.463Z,7.20
2019-03-09T02:25:34.321Z,7.20
2019-03-09T02:28:00.984Z,7.30
2019-03-09T02:30:27.924Z,7.20
2019-03-09T02:32:54.649Z,7.20
2019-03-09T02:35:21.351Z,7.30
2019-03-09T02:37:47.990Z,7.30
2019-03-09T02:40:23.246Z,7.20
2019-03-09T02:42:50.112Z,7.30
2019-03-09T02:45:18.671Z,7.30
2019-03-09T02:47:45.369Z,7.20
2019-03-09T02:50:13.714Z,7.30
2019-03-09T02:52:40.485Z,7.30
2019-03-09T02:55:08.541Z,7.30
2019-03-09T02:57:35.313Z,7.10
2019-03-09T03:00:02.353Z,7.20
2019-03-09T03:02:30.957Z,7.20
2019-03-09T03:04:57.701Z,7.30
2019-03-09T03:07:24.457Z,7.30
2019-03-09T03:09:51.219Z,7.20
2019-03-09T03:12:18.077Z,7.30
2019-03-09T03:14:44.765Z,7.20
2019-03-09T03:17:11.413Z,7.20
2019-03-09T03:19:38.090Z,7.10
2019-03-09T03:22:04.720Z,7.10
2019-03-09T03:24:31.868Z,7.00
2019-03-09T03:26:58.593Z,7.10
2019-03-09T03:29:25.328Z,7.20
2019-03-09T03:31:52.189Z,7.10
2019-03-09T03:34:18.954Z,7.10
2019-03-09T03:36:45.632Z,7.10
2019-03-09T03:39:12.454Z,7.10
2019-03-09T03:41:39.198Z,7.10
2019-03-09T03:44:05.858Z,7.10
2019-03-09T03:46:32.532Z,7.10
2019-03-09T03:48:59.189Z,7.00
2019-03-09T03:51:26.212Z,7.10
2019-03-09T03:53:52.962Z,7.10
2019-03-09T03:56:19.833Z,7.00
2019-03-09T03:58:46.512Z,7.00
2019-03-09T04:01:13.294Z,6.80
2019-03-09T04:03:39.981Z,6.90
2019-03-09T04:06:06.610Z,6.80
2019-03-09T04:08:33.403Z,6.80
2019-03-09T04:11:00.593Z,6.80
2019-03-09T04:13:27.424Z,6.80
2019-03-09T04:15:54.249Z,6.90
2019-03-09T04:18:20.912Z,6.80
2019-03-09T04:20:47.603Z,6.80
2019-03-09T04:23:14.247Z,6.90
2019-03-09T04:25:40.960Z,6.90
2019-03-09T04:28:07.655Z,6.90
2019-03-09T04:30:34.464Z,6.90
2019-03-09T04:33:01.148Z,6.90
2019-03-09T04:35:27.805Z,6.80
2019-03-09T04:37:54.498Z,6.80
2019-03-09T04:40:21.153Z,6.70
2019-03-09T04:42:47.854Z,6.80
2019-03-09T04:45:14.488Z,6.80
2019-03-09T04:47:41.174Z,6.80
2019-03-09T04:50:11.984Z,6.70
2019-03-09T04:52:38.627Z,6.70
2019-03-09T04:55:06.436Z,6.70
2019-03-09T04:57:33.127Z,6.70
2019-03-09T04:59:59.804Z,6.70
2019-03-09T05:02:26.508Z,6.70
2019-03-09T05:04:53.148Z,6.70
2019-03-09T05:07:23.262Z,6.80
2019-03-09T05:10:02.401Z,6.80
2019-03-09T05:12:30.588Z,6.70
2019-03-09T05:14:57.310Z,6.80
2019-03-09T05:17:23.950Z,6.80
2019-03-09T05:19:50.581Z,6.80
2019-03-09T05:22:17.284Z,6.80
2019-03-09T05:24:44.043Z,6.80
2019-03-09T05:27:10.856Z,6.90
2019-03-09T05:29:37.518Z,6.80
2019-03-09T05:32:04.729Z,6.90
2019-03-09T05:34:31.505Z,6.90
2019-03-09T05:36:58.260Z,6.80
2019-03-09T05:39:24.929Z,6.80
2019-03-09T05:41:51.931Z,6.80
2019-03-09T05:44:18.545Z,7.00
2019-03-09T05:46:45.188Z,6.90
2019-03-09T05:49:11.874Z,6.80
2019-03-09T05:51:38.508Z,6.90
2019-03-09T05:54:05.214Z,7.00
2019-03-09T05:56:31.878Z,7.00
2019-03-09T05:58:58.612Z,7.10
2019-03-09T06:01:25.413Z,7.10
2019-03-09T06:03:52.059Z,7.00
2019-03-09T06:06:18.860Z,7.10
2019-03-09T06:08:45.512Z,7.10
2019-03-09T06:11:12.272Z,7.10
2019-03-09T06:13:38.942Z,7.10
2019-03-09T06:16:05.635Z,7.10
2019-03-09T06:18:32.253Z,7.10
2019-03-09T06:20:58.893Z,7.20
2019-03-09T06:23:25.594Z,7.20
2019-03-09T06:25:52.294Z,7.10
2019-03-09T06:28:19.031Z,7.10
2019-03-09T06:30:45.827Z,7.10
2019-03-09T06:33:18.714Z,7.30
2019-03-09T06:35:54.413Z,7.20
2019-03-09T06:38:46.021Z,7.20
2019-03-09T06:41:31.600Z,7.30
2019-03-09T06:43:58.319Z,7.40
2019-03-09T06:46:25.049Z,7.40
2019-03-09T06:48:51.851Z,7.40
2019-03-09T06:51:18.494Z,7.40
2019-03-09T06:53:45.135Z,7.50
2019-03-09T06:56:11.825Z,7.50
2019-03-09T06:58:38.578Z,7.50
2019-03-09T07:01:19.309Z,7.60
2019-03-09T07:03:45.969Z,7.60
2019-03-09T07:06:12.756Z,7.60
2019-03-09T07:08:39.534Z,7.70
2019-03-09T07:11:06.281Z,7.70
2019-03-09T07:13:33.036Z,7.80
2019-03-09T07:15:59.830Z,7.80
2019-03-09T07:18:26.487Z,7.90
2019-03-09T07:20:53.170Z,7.90
2019-03-09T07:23:22.852Z,7.90
2019-03-09T07:25:49.664Z,8.10
2019-03-09T07:28:16.494Z,8.20
2019-03-09T07:30:43.445Z,8.50
2019-03-09T07:33:10.078Z,8.70
2019-03-09T07:35:36.785Z,8.70
2019-03-09T07:38:03.503Z,8.70
2019-03-09T07:40:30.361Z,9.00
2019-03-09T07:42:57.123Z,9.10
2019-03-09T07:45:23.890Z,9.30
2019-03-09T07:47:51.240Z,9.30
2019-03-09T07:50:18.702Z,9.50
2019-03-09T07:52:45.698Z,9.50
2019-03-09T07:55:14.017Z,9.50
2019-03-09T07:57:41.096Z,9.70
2019-03-09T08:00:16.157Z,9.60
2019-03-09T08:02:42.824Z,9.60
2019-03-09T08:05:09.813Z,9.70
2019-03-09T08:07:36.466Z,9.60
2019-03-09T08:10:12.703Z,9.60
2019-03-09T08:12:39.439Z,9.70
2019-03-09T08:15:08.929Z,9.80
2019-03-09T08:17:35.792Z,9.90
2019-03-09T08:20:03.681Z,10.00
2019-03-09T08:22:30.466Z,9.90
2019-03-09T08:24:57.138Z,10.10
2019-03-09T08:27:23.809Z,10.40
2019-03-09T08:29:50.672Z,10.40
2019-03-09T08:32:17.322Z,10.40
2019-03-09T08:34:44.100Z,10.50
2019-03-09T08:37:10.764Z,10.60
2019-03-09T08:39:37.440Z,10.70
2019-03-09T08:42:04.136Z,10.90
2019-03-09T08:44:30.945Z,10.90
2019-03-09T08:46:57.581Z,10.90
2019-03-09T08:49:24.297Z,11.00
2019-03-09T08:51:50.992Z,11.20
2019-03-09T08:54:17.817Z,11.40
2019-03-09T08:56:44.515Z,11.20
2019-03-09T08:59:11.887Z,11.10
2019-03-09T09:01:38.610Z,11.00
2019-03-09T09:04:05.277Z,10.80
2019-03-09T09:06:32.062Z,11.00
2019-03-09T09:08:58.724Z,11.10
2019-03-09T09:11:25.400Z,11.10
2019-03-09T09:13:52.040Z,11.00
2019-03-09T09:16:20.089Z,10.90
2019-03-09T09:18:46.990Z,10.90
2019-03-09T09:21:13.743Z,10.90
2019-03-09T09:23:40.552Z,11.00
2019-03-09T09:26:07.245Z,11.00
2019-03-09T09:28:34.016Z,10.90
2019-03-09T09:31:00.691Z,10.90
2019-03-09T09:33:27.369Z,11.00
2019-03-09T09:35:54.012Z,11.00
2019-03-09T09:38:20.708Z,11.00
2019-03-09T09:40:47.365Z,11.10
2019-03-09T09:43:14.058Z,11.10
2019-03-09T09:45:40.686Z,11.00
2019-03-09T09:48:07.494Z,11.00
2019-03-09T09:50:34.133Z,11.10
2019-03-09T09:53:00.817Z,11.00
2019-03-09T09:55:27.494Z,11.10
2019-03-09T09:57:54.233Z,10.90
2019-03-09T10:00:23.124Z,11.00
2019-03-09T10:02:49.864Z,10.90
2019-03-09T10:05:16.557Z,10.90
2019-03-09T10:07:43.513Z,11.00
2019-03-09T10:10:17.773Z,11.10
2019-03-09T10:12:44.435Z,11.10
2019-03-09T10:15:16.560Z,11.20
2019-03-09T10:17:43.261Z,11.20
2019-03-09T10:20:11.440Z,11.30
2019-03-09T10:22:38.150Z,11.60
2019-03-09T10:25:07.170Z,11.80
2019-03-09T10:27:33.874Z,11.80
2019-03-09T10:30:00.570Z,11.90
2019-03-09T10:32:27.345Z,12.10
2019-03-09T10:34:53.995Z,12.20
2019-03-09T10:37:21.245Z,12.40
2019-03-09T10:39:48.972Z,12.30
2019-03-09T10:42:15.605Z,12.40
2019-03-09T10:44:42.409Z,12.30
2019-03-09T10:47:09.092Z,12.40
2019-03-09T10:49:35.741Z,12.40
2019-03-09T10:52:02.408Z,11.90
2019-03-09T10:54:36.031Z,11.90
2019-03-09T10:56:57.632Z,12.10
2019-03-09T10:59:24.289Z,12.20
2019-03-09T11:01:50.951Z,12.10
2019-03-09T11:04:27.027Z,12.40
2019-03-09T11:06:46.253Z,12.30
2019-03-09T11:09:12.981Z,12.10
2019-03-09T11:11:39.760Z,12.20
2019-03-09T11:14:06.446Z,12.20
2019-03-09T11:16:33.100Z,12.00
2019-03-09T11:18:59.851Z,12.10
2019-03-09T11:21:26.444Z,12.20
2019-03-09T11:23:53.190Z,12.50
2019-03-09T11:26:20.004Z,12.60
2019-03-09T11:28:46.732Z,12.70
2019-03-09T11:31:13.425Z,12.60
2019-03-09T11:33:40.096Z,12.60
2019-03-09T11:36:06.746Z,12.50
2019-03-09T11:38:33.416Z,12.60
2019-03-09T11:41:00.921Z,12.50
2019-03-09T11:43:27.823Z,12.50
2019-03-09T11:45:54.888Z,12.40
2019-03-09T11:48:21.515Z,12.50
2019-03-09T11:50:48.201Z,12.50
2019-03-09T11:53:14.937Z,12.80
2019-03-09T11:55:41.753Z,13.00
2019-03-09T11:58:08.885Z,13.30
2019-03-09T12:00:37.470Z,13.40
2019-03-09T12:03:04.128Z,13.40
2019-03-09T12:05:30.809Z,13.70
2019-03-09T12:07:57.455Z,13.60
2019-03-09T12:10:24.147Z,13.30
2019-03-09T12:12:50.777Z,13.30
2019-03-09T12:15:17.653Z,13.30
2019-03-09T12:17:44.394Z,13.30
2019-03-09T12:20:13.437Z,13.10
2019-03-09T12:22:40.109Z,13.00
2019-03-09T12:25:09.172Z,12.90
2019-03-09T12:27:35.853Z,12.80
2019-03-09T12:30:04.193Z,12.80
2019-03-09T12:32:30.961Z,12.70
2019-03-09T12:34:57.694Z,12.80
2019-03-09T12:37:24.386Z,12.80
2019-03-09T12:39:51.024Z,13.10
2019-03-09T12:42:17.697Z,13.00
2019-03-09T12:44:44.332Z,13.10
2019-03-09T12:47:11.133Z,13.00
2019-03-09T12:49:37.841Z,13.00
2019-03-09T12:52:04.620Z,13.20
2019-03-09T12:54:31.278Z,13.40
2019-03-09T12:56:57.900Z,13.50
2019-03-09T12:59:24.590Z,13.30
2019-03-09T13:01:51.223Z,13.10
2019-03-09T13:04:17.888Z,13.10
2019-03-09T13:06:44.524Z,13.50
2019-03-09T13:09:11.205Z,13.60
2019-03-09T13:11:37.846Z,13.40
2019-03-09T13:14:04.521Z,13.90
2019-03-09T13:16:31.202Z,14.30
2019-03-09T13:18:57.842Z,14.00
2019-03-09T13:21:24.513Z,13.70
2019-03-09T13:23:51.181Z,13.80
2019-03-09T13:26:17.878Z,14.00
2019-03-09T13:28:44.540Z,13.90
2019-03-09T13:31:11.271Z,13.80
2019-03-09T13:33:38.024Z,14.10
2019-03-09T13:36:06.210Z,13.80
2019-03-09T13:38:32.898Z,13.10
2019-03-09T13:40:59.553Z,12.80
2019-03-09T13:43:26.235Z,12.80
2019-03-09T13:45:52.873Z,12.90
2019-03-09T13:48:19.543Z,13.40
2019-03-09T13:50:46.177Z,13.50
2019-03-09T13:53:12.842Z,13.90
2019-03-09T13:55:39.488Z,13.80
2019-03-09T13:58:06.165Z,13.80
2019-03-09T14:00:40.063Z,14.00
2019-03-09T14:03:03.072Z,14.30
2019-03-09T14:05:29.857Z,14.20
2019-03-09T14:07:56.555Z,14.10
2019-03-09T14:10:23.195Z,14.30
2019-03-09T14:12:49.877Z,14.20
2019-03-09T14:15:16.715Z,13.90
2019-03-09T14:17:43.609Z,13.50
2019-03-09T14:20:11.701Z,13.40
2019-03-09T14:22:40.250Z,13.40
2019-03-09T14:25:09.148Z,13.50
2019-03-09T14:27:35.813Z,13.50
2019-03-09T14:30:05.150Z,13.30
2019-03-09T14:32:31.937Z,13.10
2019-03-09T14:34:58.579Z,13.00
2019-03-09T14:37:25.249Z,12.40
2019-03-09T14:39:51.916Z,11.90
2019-03-09T14:42:18.557Z,11.80
2019-03-09T14:44:45.224Z,11.50
2019-03-09T14:47:11.861Z,11.00
2019-03-09T14:49:38.542Z,10.50
2019-03-09T14:52:05.286Z,10.50
2019-03-09T14:54:31.938Z,10.40
2019-03-09T14:56:58.616Z,10.50
2019-03-09T14:59:25.288Z,10.70
2019-03-09T15:01:51.974Z,10.70
2019-03-09T15:04:18.589Z,10.80
2019-03-09T15:06:45.288Z,10.80
2019-03-09T15:09:12.028Z,11.00
2019-03-09T15:11:38.729Z,11.20
2019-03-09T15:14:05.362Z,11.20
2019-03-09T15:16:32.064Z,11.20
2019-03-09T15:18:58.723Z,11.20
2019-03-09T15:21:25.399Z,11.30
2019-03-09T15:23:52.065Z,11.40
2019-03-09T15:26:18.714Z,11.30
2019-03-09T15:28:45.413Z,11.30
2019-03-09T15:31:12.090Z,11.30
2019-03-09T15:33:38.864Z,11.40
2019-03-09T15:36:05.513Z,11.30
2019-03-09T15:38:32.214Z,11.30
2019-03-09T15:40:58.892Z,11.40
2019-03-09T15:43:25.719Z,11.30
2019-03-09T15:45:52.409Z,11.30
2019-03-09T15:48:19.159Z,11.20
2019-03-09T15:50:45.855Z,11.10
2019-03-09T15:53:12.489Z,10.90
2019-03-09T15:55:39.170Z,10.40
2019-03-09T15:58:05.805Z,10.00
2019-03-09T16:00:32.501Z,9.80
2019-03-09T16:02:59.146Z,9.50
2019-03-09T16:05:25.858Z,9.40
2019-03-09T16:07:52.499Z,9.30
2019-03-09T16:10:22.203Z,9.40
2019-03-09T16:12:48.869Z,9.30
2019-03-09T16:15:16.095Z,9.60
2019-03-09T16:17:42.802Z,9.40
2019-03-09T16:20:14.709Z,9.40
2019-03-09T16:22:41.497Z,9.30
2019-03-09T16:25:08.362Z,9.50
2019-03-09T16:27:35.036Z,9.50
2019-03-09T16:30:01.883Z,9.40
2019-03-09T16:32:28.590Z,9.30
2019-03-09T16:34:55.239Z,9.30
2019-03-09T16:37:21.950Z,9.20
2019-03-09T16:39:48.600Z,9.20
2019-03-09T16:42:15.388Z,9.30
2019-03-09T16:44:42.045Z,9.20
2019-03-09T16:47:08.833Z,9.10
2019-03-09T16:49:35.481Z,9.20
2019-03-09T16:52:02.214Z,9.10
2019-03-09T16:54:28.888Z,9.40
2019-03-09T16:56:55.730Z,9.30
2019-03-09T16:59:22.365Z,9.00
2019-03-09T17:01:48.980Z,7.90
2019-03-09T17:04:15.836Z,8.00
2019-03-09T17:06:42.480Z,7.50
2019-03-09T17:09:09.369Z,7.30
2019-03-09T17:11:36.092Z,7.70
2019-03-09T17:14:02.773Z,7.90
2019-03-09T17:16:29.465Z,7.70
2019-03-09T17:18:56.106Z,7.90
2019-03-09T17:21:22.793Z,7.60
2019-03-09T17:23:49.478Z,7.70
2019-03-09T17:26:16.172Z,7.60
2019-03-09T17:28:43.043Z,7.50
2019-03-09T17:31:09.724Z,7.50
2019-03-09T17:33:36.361Z,7.40
2019-03-09T17:36:03.134Z,7.70
2019-03-09T17:38:29.805Z,7.70
2019-03-09T17:40:56.532Z,7.50
2019-03-09T17:43:23.198Z,7.60
2019-03-09T17:45:49.845Z,7.60
2019-03-09T17:48:16.482Z,7.60
2019-03-09T17:50:43.158Z,7.80
2019-03-09T17:53:09.792Z,7.90
2019-03-09T17:55:36.610Z,7.90
2019-03-09T17:58:03.290Z,7.80
2019-03-09T18:00:41.804Z,7.70
2019-03-09T18:03:00.509Z,8.00
2019-03-09T18:05:27.259Z,7.70
2019-03-09T18:07:54.462Z,7.80
2019-03-09T18:10:27.480Z,7.80
2019-03-09T18:12:54.180Z,7.60
2019-03-09T18:15:21.785Z,7.70
2019-03-09T18:17:48.497Z,7.70
2019-03-09T18:20:15.137Z,7.80
2019-03-09T18:22:41.804Z,7.90
2019-03-09T18:25:08.493Z,7.80
2019-03-09T18:27:35.225Z,7.90
2019-03-09T18:30:02.217Z,7.80
2019-03-09T18:32:28.904Z,7.80
2019-03-09T18:34:55.700Z,7.80
2019-03-09T18:37:22.357Z,7.80
2019-03-09T18:39:49.023Z,7.90
2019-03-09T18:42:15.805Z,7.80
2019-03-09T18:44:42.440Z,7.70
2019-03-09T18:47:09.253Z,7.90
2019-03-09T18:49:36.412Z,7.70
2019-03-09T18:52:02.984Z,7.80
2019-03-09T18:54:29.656Z,7.80
2019-03-09T18:56:56.350Z,7.90
2019-03-09T18:59:23.000Z,7.90
2019-03-09T19:01:49.704Z,8.00
2019-03-09T19:04:18.014Z,7.70
2019-03-09T19:06:48.814Z,7.80
2019-03-09T19:09:17.145Z,7.80
2019-03-09T19:11:44.394Z,7.90
2019-03-09T19:14:11.572Z,7.90
2019-03-09T19:16:38.411Z,7.80
2019-03-09T19:19:05.230Z,7.70
2019-03-09T19:21:31.935Z,7.80
2019-03-09T19:23:58.721Z,7.80
2019-03-09T19:26:25.497Z,7.60
2019-03-09T19:28:52.261Z,7.60
2019-03-09T19:31:19.108Z,7.80
2019-03-09T19:33:46.153Z,7.60
2019-03-09T19:36:13.023Z,7.80
2019-03-09T19:38:40.197Z,7.70
2019-03-09T19:41:06.897Z,7.70
2019-03-09T19:43:33.609Z,7.50
2019-03-09T19:46:00.290Z,7.60
2019-03-09T19:48:26.974Z,7.80
2019-03-09T19:50:53.605Z,7.60
2019-03-09T19:53:20.240Z,7.60
2019-03-09T19:55:46.912Z,7.60
2019-03-09T19:58:13.581Z,7.60
2019-03-09T20:00:40.268Z,7.50
2019-03-09T20:03:06.935Z,7.60
2019-03-09T20:05:33.618Z,7.40
2019-03-09T20:08:00.284Z,7.60
2019-03-09T20:10:27.017Z,7.50
2019-03-09T20:12:54.037Z,7.50
2019-03-09T20:15:20.979Z,7.30
2019-03-09T20:17:47.889Z,7.50
2019-03-09T20:20:15.548Z,7.40
2019-03-09T20:22:42.465Z,7.40
2019-03-09T20:25:09.374Z,7.60
2019-03-09T20:27:36.250Z,7.60
2019-03-09T20:30:11.796Z,7.30
2019-03-09T20:32:38.464Z,7.30
2019-03-09T20:35:06.909Z,7.30
2019-03-09T20:37:33.685Z,7.50
2019-03-09T20:40:00.411Z,7.40
2019-03-09T20:42:27.092Z,7.20
2019-03-09T20:44:53.789Z,7.30
2019-03-09T20:47:20.715Z,7.50
2019-03-09T20:49:47.364Z,7.50
2019-03-09T20:52:14.442Z,7.40
2019-03-09T20:54:41.377Z,7.20
2019-03-09T20:57:08.495Z,7.40
2019-03-09T20:59:35.156Z,7.30
2019-03-09T21:02:02.181Z,7.30
2019-03-09T21:04:28.779Z,7.40
2019-03-09T21:06:55.561Z,7.60
2019-03-09T21:09:22.201Z,7.30
2019-03-09T21:11:48.879Z,7.40
2019-03-09T21:14:15.561Z,7.50
2019-03-09T21:16:42.194Z,7.50
2019-03-09T21:19:08.876Z,7.30
2019-03-09T21:21:35.669Z,7.50
2019-03-09T21:24:02.536Z,7.40
2019-03-09T21:26:29.440Z,7.40
2019-03-09T21:28:56.117Z,7.50
2019-03-09T21:31:22.937Z,7.60
2019-03-09T21:33:49.606Z,7.60
2019-03-09T21:36:16.947Z,7.60
2019-03-09T21:38:43.520Z,7.50
2019-03-09T21:41:10.335Z,7.60
2019-03-09T21:43:37.029Z,7.60
2019-03-09T21:46:03.713Z,7.50
2019-03-09T21:48:30.466Z,7.50
2019-03-09T21:50:57.245Z,7.60
2019-03-09T21:53:23.897Z,7.70
2019-03-09T21:55:50.597Z,7.70
2019-03-09T21:58:17.250Z,7.70
2019-03-09T22:00:43.906Z,7.60
2019-03-09T22:03:10.780Z,7.80
2019-03-09T22:05:37.448Z,7.80
2019-03-09T22:08:04.125Z,7.80
2019-03-09T22:10:30.767Z,7.80
2019-03-09T22:12:57.445Z,7.60
2019-03-09T22:15:24.078Z,7.80
2019-03-09T22:17:50.771Z,7.70
2019-03-09T22:20:17.620Z,7.70
2019-03-09T22:22:44.316Z,7.60
2019-03-09T22:25:14.753Z,7.50
2019-03-09T22:27:41.506Z,7.60
2019-03-09T22:30:21.481Z,7.60
2019-03-09T22:32:48.173Z,7.60
2019-03-09T22:35:14.867Z,7.60
2019-03-09T22:37:41.559Z,7.50
2019-03-09T22:40:14.053Z,7.60
2019-03-09T22:42:40.760Z,7.70
2019-03-09T22:45:09.838Z,7.70
2019-03-09T22:47:36.477Z,7.70
2019-03-09T22:50:08.505Z,7.70
2019-03-09T22:52:35.178Z,7.90
2019-03-09T22:55:01.839Z,7.80
2019-03-09T22:57:28.509Z,8.00
2019-03-09T22:59:55.187Z,8.20
2019-03-09T23:02:21.869Z,8.10
2019-03-09T23:04:48.621Z,7.90
2019-03-09T23:07:15.338Z,7.90
2019-03-09T23:09:42.105Z,8.00
2019-03-09T23:12:08.798Z,8.00
2019-03-09T23:14:35.432Z,7.90
2019-03-09T23:17:02.117Z,8.00
2019-03-09T23:19:28.805Z,7.90
2019-03-09T23:21:55.593Z,8.10
2019-03-09T23:24:22.277Z,8.10
2019-03-09T23:26:48.963Z,7.90
2019-03-09T23:29:15.603Z,7.90
2019-03-09T23:31:42.370Z,7.90
2019-03-09T23:34:09.041Z,7.90
2019-03-09T23:36:35.798Z,8.00
2019-03-09T23:39:05.897Z,8.00
2019-03-09T23:41:32.597Z,8.20
2019-03-09T23:43:59.380Z,8.00
2019-03-09T23:46:26.012Z,7.90
2019-03-09T23:48:52.917Z,8.10
2019-03-09T23:51:19.697Z,8.00
2019-03-09T23:53:46.324Z,8.20
2019-03-09T23:56:13.768Z,8.00
2019-03-09T23:58:40.735Z,7.90
